• Join FlightAware (Why Join?)
  • Login
  • US Flag 
Gobble Gobble! 
07:44PM EST


 

Airport Tracker/Info


-or-


 

Live Flight TrackerFlight Track Log ✈ UAL1177 ✈ 17-May-2013 ✈ KFLL - KDEN

Flight Track Log - Related Links

Times and Time Zones

All times are in EDT time to prevent confusion due to time zone crossing. See the UAL1177 flight status page for this flight to view local times or setup timezone preferences in your user account.

Time Position Orientation Groundspeed Altitude Reporting Facility
EDT Latitude Longitude Course Direction KTS MPH feet Rate Location/Type
03:27PM 26.0750 -80.1344 336° Northwest 172 198 800  Level Miami Center
03:28PM 26.0783 -80.0789 86° East 225 259 2,200 1,200 Climbing Miami Center
03:29PM 26.0864 -79.9981 84° East 267 307 3,200 1,800 Climbing Miami Center
03:30PM 26.1719 -80.5001 293° West  Level FlightAware Approximate
03:30PM 26.1494 -79.9767 17° North 267 307 5,900  Level Miami Center
03:31PM 26.2164 -80.6160 293° West  Level FlightAware Approximate
03:31PM 26.2003 -80.0383 313° West 276 318 8,000  Level Miami Center
03:31PM 26.2061 -80.0617 286° West 280 322 7,900 840 Descending Miami Center
03:32PM 26.3193 -80.6680 336° Northwest  Level FlightAware Approximate
03:32PM 26.2172 -80.1197 282° West 284 327 8,900  Level Miami Center
03:32PM 26.2272 -80.1456 293° West 285 328 8,900 60 Level Miami Center
03:33PM 26.2425 -80.2083 285° West 288 331 9,000  Climbing Miami Center
03:33PM 26.2461 -80.2317 280° West 288 331 8,900 240 Descending Miami Center
03:34PM 26.2567 -80.3178 278° West 288 331 9,400 1,560 Climbing Miami Center
03:35PM 26.2711 -80.4131 280° West 288 331 12,100 2,040 Climbing Miami Center
03:36PM 26.2814 -80.4992 278° West 303 349 13,500 1,740 Climbing Miami Center
03:37PM 26.3267 -80.6094 295° West 334 384 15,600 1,920 Climbing Miami Center
03:38PM 26.4042 -80.6861 318° Northwest 356 410 17,400 1,980 Climbing Miami Center
03:39PM 26.4961 -80.7586 325° Northwest 389 448 19,600 2,100 Climbing Miami Center
03:40PM 26.5842 -80.8289 324° Northwest 394 453 21,700 1,860 Climbing Miami Center
03:41PM 26.6758 -80.9064 323° Northwest 406 467 23,400 1,680 Climbing Miami Center
03:42PM 26.7719 -80.9842 324° Northwest 406 467 25,100 1,500 Climbing Miami Center
03:43PM 26.8431 -81.0494 321° Northwest 411 473 26,400 1,260 Climbing Miami Center
03:44PM 26.9469 -81.1347 324° Northwest 411 473 27,700 1,200 Climbing Miami Center
03:45PM 27.0428 -81.2153 323° Northwest 417 480 28,900 1,500 Climbing Miami Center
03:46PM 27.1406 -81.2958 324° Northwest 430 495 30,700 1,920 Climbing Miami Center
03:47PM 27.2444 -81.3817 324° Northwest 430 495 32,800 1,500 Climbing Miami Center
03:48PM 27.3214 -81.4500 322° Northwest 417 480 33,800 900 Climbing Miami Center
03:49PM 27.4131 -81.5286 323° Northwest 412 474 34,700 960 Climbing Miami Center
03:50PM 27.5144 -81.6122 324° Northwest 406 467 35,800 600 Climbing Miami Center
03:51PM 27.6039 -81.6886 323° Northwest 406 467 36,000 60 Climbing Miami Center
03:53PM 27.7908 -81.8417 324° Northwest 400 460 36,000  Level Jacksonville Center
03:54PM 27.8728 -81.9136 322° Northwest 405 466 36,000  Level Jacksonville Center
03:55PM 27.9611 -81.9903 323° Northwest 410 472 36,000  Level Jacksonville Center
03:56PM 28.0492 -82.0694 322° Northwest 410 472 36,000  Level Jacksonville Center
03:57PM 28.1331 -82.1511 319° Northwest 400 460 36,000 -60 Level Jacksonville Center
03:58PM 28.1964 -82.2472 307° West 387 445 35,900  Descending Jacksonville Center
03:59PM 28.2636 -82.3458 308° West 387 445 36,000  Climbing Jacksonville Center
04:00PM 28.3264 -82.4444 306° West 393 452 36,000  Level Jacksonville Center
04:01PM 28.3914 -82.5458 306° West 393 452 36,000  Level Jacksonville Center
04:02PM 28.4586 -82.6422 308° West 393 452 36,000  Level Jacksonville Center
04:03PM 28.5256 -82.7436 307° West 398 458 36,000  Level Jacksonville Center
04:04PM 28.5903 -82.8475 305° West 398 458 36,000  Level Jacksonville Center
04:05PM 28.6611 -82.9542 307° West 403 464 36,000 -60 Level Jacksonville Center
04:06PM 28.7278 -83.0558 307° West 403 464 35,900 -60 Descending Jacksonville Center
04:07PM 28.7944 -83.1581 307° West 403 464 35,900  Level Jacksonville Center
04:08PM 28.8589 -83.2578 306° West 403 464 36,000  Climbing Jacksonville Center
04:09PM 28.9253 -83.3622 306° West 403 464 36,000  Level Jacksonville Center
04:10PM 28.9917 -83.4669 306° West 403 464 36,000  Level Jacksonville Center
04:11PM 29.0581 -83.5694 307° West 403 464 36,000  Level Jacksonville Center
04:12PM 29.1222 -83.6675 307° West 403 464 36,000 -60 Level Jacksonville Center
04:13PM 29.1906 -83.7728 307° West 403 464 35,900  Descending Jacksonville Center
04:14PM 29.2544 -83.8756 305° West 403 464 36,000  Climbing Jacksonville Center
04:15PM 29.3203 -83.9786 306° West 403 464 36,000  Level Jacksonville Center
04:16PM 29.3861 -84.0842 306° West 403 464 36,000  Level Jacksonville Center
04:17PM 29.4500 -84.1853 306° West 403 464 36,000  Level Jacksonville Center
04:18PM 29.5156 -84.2886 306° West 403 464 36,000  Level Jacksonville Center
04:19PM 29.5833 -84.3900 308° West 403 464 36,000  Level Jacksonville Center
04:20PM 29.6489 -84.4914 307° West 403 464 36,000  Level Jacksonville Center
04:21PM 29.7144 -84.5975 305° West 403 464 36,000  Level Jacksonville Center
04:22PM 29.7797 -84.7039 305° West 403 464 36,000  Level Jacksonville Center
04:23PM 29.8450 -84.8106 305° West 403 464 36,000  Level Jacksonville Center
04:24PM 29.9103 -84.9150 306° West 403 464 36,000  Level Jacksonville Center
04:25PM 29.9772 -85.0219 306° West 403 464 36,000  Level Jacksonville Center
04:26PM 30.0383 -85.1192 306° West 408 470 36,000 480 Level Jacksonville Center
04:27PM 30.1033 -85.2239 306° West 408 470 37,000 900 Climbing Jacksonville Center
04:28PM 30.1661 -85.3239 306° West 403 464 37,800 480 Climbing Jacksonville Center
04:29PM 30.2286 -85.4361 303° West 403 464 38,000 60 Climbing Jacksonville Center
04:30PM 30.2975 -85.5367 308° West 403 464 38,000  Level Jacksonville Center
04:31PM 30.3622 -85.6442 305° West 403 464 38,000 -60 Level Jacksonville Center
04:32PM 30.4244 -85.7472 305° West 403 464 37,900  Descending Jacksonville Center
04:33PM 30.4908 -85.8575 305° West 403 464 38,000  Climbing Jacksonville Center
04:34PM 30.5553 -85.9633 305° West 403 464 38,000  Level Jacksonville Center
04:35PM 30.6194 -86.0692 305° West 403 464 38,000  Level Jacksonville Center
04:36PM 30.6856 -86.1800 305° West 403 464 38,000 -60 Level Jacksonville Center
04:37PM 30.7494 -86.2886 304° West 409 471 37,900  Descending Jacksonville Center
04:38PM 30.8156 -86.3925 307° West 409 471 38,000  Climbing Jacksonville Center
04:39PM 30.8792 -86.5039 304° West 403 464 38,000  Level Jacksonville Center
04:40PM 30.9450 -86.6081 306° West 403 464 38,000  Level Jacksonville Center
04:41PM 31.0167 -86.7297 305° West 410 472 38,000  Level Jacksonville Center
04:43PM 31.1369 -86.9281 305° West 394 453 38,000  Level Atlanta Center
04:44PM 31.1992 -87.0344 304° West 394 453 38,000  Level Atlanta Center
04:45PM 31.2631 -87.1433 304° West 400 460 38,000  Level Atlanta Center
04:46PM 31.3250 -87.2522 304° West 405 466 38,000  Level Atlanta Center
04:47PM 31.3831 -87.3517 304° West 410 472 38,000  Level Atlanta Center
04:48PM 31.4467 -87.4611 304° West 410 472 38,000  Level Atlanta Center
04:49PM 31.5106 -87.5706 304° West 405 466 38,000  Level Atlanta Center
04:50PM 31.5742 -87.6781 305° West 405 466 38,000  Level Atlanta Center
04:51PM 31.6375 -87.7903 304° West 405 466 38,000  Level Atlanta Center
04:52PM 31.7008 -87.9003 304° West 405 466 38,000  Level Atlanta Center
04:55PM 31.8508 -88.1661 304° West 412 474 38,000  Level Memphis Center
04:56PM 31.9156 -88.2797 304° West 412 474 38,000  Level Memphis Center
04:57PM 31.9800 -88.3858 306° West 412 474 38,000  Level Memphis Center
04:58PM 32.0442 -88.4972 304° West 412 474 38,000  Level Memphis Center
04:59PM 32.1042 -88.6064 303° West 412 474 38,000  Level Memphis Center
05:00PM 32.1664 -88.7181 303° West 412 474 38,000  Level Memphis Center
05:01PM 32.2283 -88.8297 303° West 412 474 38,000  Level Memphis Center
05:02PM 32.2922 -88.9417 304° West 412 474 38,000  Level Memphis Center
05:03PM 32.3561 -89.0539 304° West 412 474 38,000  Level Memphis Center
05:04PM 32.4178 -89.1686 303° West 412 474 38,000  Level Memphis Center
05:05PM 32.4836 -89.2836 304° West 412 474 38,000  Level Memphis Center
05:06PM 32.5450 -89.3961 303° West 412 474 38,000  Level Memphis Center
05:07PM 32.6083 -89.5114 303° West 412 474 38,000  Level Memphis Center
05:08PM 32.6697 -89.6244 303° West 412 474 38,000  Level Memphis Center
05:09PM 32.7331 -89.7400 303° West 412 474 38,000  Level Memphis Center
05:10PM 32.7942 -89.8556 302° West 412 474 38,000  Level Memphis Center
05:11PM 32.8614 -89.9739 304° West 418 481 38,000  Level Memphis Center
05:12PM 32.9242 -90.0925 302° West 424 488 38,000  Level Memphis Center
05:13PM 32.9892 -90.2111 303° West 424 488 38,000  Level Memphis Center
05:14PM 33.0539 -90.3250 304° West 424 488 38,000  Level Memphis Center
05:15PM 33.1144 -90.4417 302° West 424 488 38,000  Level Memphis Center
05:16PM 33.1792 -90.5608 303° West 424 488 38,000  Level Memphis Center
05:17PM 33.2414 -90.6778 302° West 424 488 38,000  Level Memphis Center
05:18PM 33.3036 -90.7922 303° West 424 488 38,000  Level Memphis Center
05:19PM 33.3658 -90.9094 302° West 424 488 38,000  Level Memphis Center
05:20PM 33.4281 -91.0292 302° West 424 488 38,000  Level Memphis Center
05:21PM 33.4919 -91.1494 303° West 429 494 38,000  Level Memphis Center
05:22PM 33.5539 -91.2644 303° West 429 494 38,000  Level Memphis Center
05:23PM 33.6156 -91.3825 302° West 429 494 38,000  Level Memphis Center
05:24PM 33.6792 -91.5056 302° West 429 494 38,000  Level Memphis Center
05:25PM 33.7406 -91.6236 302° West 429 494 38,000  Level Memphis Center
05:26PM 33.8206 -91.7575 306° West 436 502 38,000  Level Memphis Center
05:27PM 33.8756 -91.8733 300° West 430 495 38,000  Level Memphis Center
05:28PM 33.9408 -91.9922 304° West 430 495 38,000  Level Memphis Center
05:29PM 34.0017 -92.1186 300° West 425 489 38,000  Level Memphis Center
05:30PM 34.0606 -92.2325 302° West 425 489 38,000  Level Memphis Center
05:31PM 34.1194 -92.3492 301° West 420 483 38,000  Level Memphis Center
05:32PM 34.1819 -92.4714 302° West 420 483 38,000  Level Memphis Center
05:33PM 34.2425 -92.5883 302° West 420 483 38,000  Level Memphis Center
05:34PM 34.3050 -92.7156 301° West 425 489 38,000  Level Memphis Center
05:35PM 34.3633 -92.8306 302° West 419 482 38,000  Level Memphis Center
05:36PM 34.4233 -92.9481 302° West 413 475 38,000  Level Memphis Center
05:37PM 34.4856 -93.0683 302° West 413 475 38,000  Level Memphis Center
05:38PM 34.5433 -93.1911 300° West 413 475 38,000  Level Memphis Center
05:39PM 34.6053 -93.3144 301° West 418 481 38,000  Level Memphis Center
05:40PM 34.6647 -93.4403 300° West 418 481 38,000  Level Memphis Center
05:41PM 34.7264 -93.5611 302° West 423 487 38,000  Level Memphis Center
05:42PM 34.7858 -93.6797 301° West 423 487 38,000  Level Memphis Center
05:43PM 34.8472 -93.8036 301° West 423 487 38,000  Level Memphis Center
05:44PM 34.9044 -93.9225 300° West 417 480 38,000  Level Memphis Center
05:45PM 34.9633 -94.0414 301° West 417 480 38,000  Level Memphis Center
05:46PM 35.0203 -94.1631 300° West 417 480 38,000  Level Memphis Center
05:47PM 35.0831 -94.2878 302° West 417 480 38,000  Level Memphis Center
05:48PM 35.1397 -94.4097 300° West 417 480 38,000  Level Memphis Center
05:49PM 35.1983 -94.5294 301° West 417 480 38,000  Level Memphis Center
05:50PM 35.2547 -94.6450 301° West 410 472 38,000  Level Fort Worth Center
05:51PM 35.3094 -94.7628 300° West 410 472 38,000  Level Fort Worth Center
05:52PM 35.3661 -94.8831 300° West 410 472 38,000  Level Fort Worth Center
05:53PM 35.4247 -95.0036 301° West 410 472 38,000  Level Fort Worth Center
05:54PM 35.4856 -95.1344 300° West 410 472 38,000  Level Fort Worth Center
05:55PM 35.5442 -95.2553 301° West 410 472 38,000  Level Fort Worth Center
05:56PM 35.6003 -95.3764 300° West 410 472 38,000  Level Fort Worth Center
05:56PM 35.6422 -95.4611 301° West 407 468 38,000  Level Kansas City Center
05:58PM 35.6992 -95.5825 300° West 407 468 38,000  Level Kansas City Center
05:59PM 35.7547 -95.7033 300° West 405 466 38,000  Level Kansas City Center
06:00PM 35.8125 -95.8272 300° West 410 472 38,000  Level Kansas City Center
06:01PM 35.8686 -95.9508 299° West 412 474 38,000  Level Kansas City Center
06:02PM 35.9372 -96.0992 300° West 413 475 38,000  Level Kansas City Center
06:03PM 35.9942 -96.2233 300° West 413 475 38,000  Level Kansas City Center
06:04PM 36.0519 -96.3475 300° West 415 478 38,000  Level Kansas City Center
06:05PM 36.1092 -96.4706 300° West 413 475 38,000  Level Kansas City Center
06:06PM 36.1642 -96.5936 299° West 410 472 38,000  Level Kansas City Center
06:07PM 36.2194 -96.7169 299° West 408 470 38,000  Level Kansas City Center
06:08PM 36.2769 -96.8428 300° West 409 471 38,000  Level Kansas City Center
06:09PM 36.3311 -96.9636 299° West 405 466 38,000  Level Kansas City Center
06:10PM 36.3961 -97.1114 299° West 407 468 38,000  Level Kansas City Center
06:11PM 36.4511 -97.2317 300° West 406 467 38,000  Level Kansas City Center
06:12PM 36.5056 -97.3525 299° West 404 465 38,000  Level Kansas City Center
06:13PM 36.5597 -97.4783 298° West 408 470 38,000  Level Kansas City Center
06:14PM 36.6144 -97.6069 298° West 412 474 38,000  Level Kansas City Center
06:15PM 36.6686 -97.7300 299° West 411 473 38,000  Level Kansas City Center
06:16PM 36.7328 -97.8775 299° West 407 468 38,000  Level Kansas City Center
06:17PM 36.7883 -98.0058 298° West 412 474 38,000  Level Kansas City Center
06:18PM 36.8439 -98.1344 298° West 415 478 38,000  Level Kansas City Center
06:19PM 36.8992 -98.2614 299° West 414 476 38,000  Level Kansas City Center
06:20PM 36.9536 -98.3900 298° West 418 481 38,000  Level Kansas City Center
06:21PM 37.0069 -98.5142 298° West 416 479 38,000  Level Kansas City Center
06:22PM 37.0725 -98.6672 298° West 415 478 38,000  Level Kansas City Center
06:23PM 37.1156 -98.7711 297° West 410 472 38,000  Level Kansas City Center
06:24PM 37.1808 -98.9239 298° West 412 474 38,000  Level Kansas City Center
06:25PM 37.2342 -99.0517 298° West 412 474 38,000  Level Kansas City Center
06:26PM 37.2858 -99.1747 298° West 413 475 38,000  Level Kansas City Center
06:28PM 37.3408 -99.3083 297° West 413 475 38,000  Level Kansas City Center
06:29PM 37.3942 -99.4353 298° West 411 473 38,000  Level Kansas City Center
06:30PM 37.4519 -99.5725 298° West 410 472 38,000  Level Kansas City Center
06:31PM 37.5092 -99.7153 297° West 410 472 38,000  Level Kansas City Center
06:32PM 37.5594 -99.8372 298° West 411 473 38,000  Level Kansas City Center
06:33PM 37.6181 -99.9828 297° West 414 476 38,000  Level Kansas City Center
06:34PM 37.6703 -100.1069 298° West 419 482 38,000  Level Kansas City Center
06:35PM 37.7289 -100.2519 297° West 417 480 38,000  Level Kansas City Center
06:36PM 37.7803 -100.3772 297° West 420 483 38,000  Level Kansas City Center
06:37PM 37.8392 -100.5239 297° West 423 487 38,000  Level Kansas City Center
06:38PM 37.8883 -100.6469 297° West 416 479 38,000  Level Kansas City Center
06:39PM 37.9456 -100.7903 297° West 413 475 38,000  Level Kansas City Center
06:40PM 37.9917 -100.9117 296° West 406 467 38,000  Level Kansas City Center
06:40PM 38.0222 -100.9936 295° West 406 467 38,000  Level Denver Center
06:42PM 38.0689 -101.1150 296° West 403 464 38,000  Level Denver Center
06:43PM 38.1231 -101.2583 296° West 404 465 38,000  Level Denver Center
06:44PM 38.1697 -101.3806 296° West 404 465 38,000  Level Denver Center
06:45PM 38.2314 -101.5200 299° West 408 470 38,000  Level Denver Center
06:46PM 38.2897 -101.6383 302° West 412 474 38,000  Level Denver Center
06:47PM 38.3586 -101.7744 303° West 412 474 38,000 -120 Level Denver Center
06:48PM 38.4167 -101.8933 302° West 413 475 37,800 -540 Descending Denver Center
06:49PM 38.4656 -101.9911 303° West 411 473 37,000 -1,020 Descending Denver Center
06:50PM 38.5431 -102.1492 302° West 413 475 35,800 -1,080 Descending Denver Center
06:51PM 38.6122 -102.2914 302° West 419 482 34,800 -900 Descending Denver Center
06:52PM 38.6619 -102.3939 302° West 423 487 34,000 -1,020 Descending Denver Center
06:53PM 38.7422 -102.5589 302° West 427 491 32,800 -1,020 Descending Denver Center
06:54PM 38.8050 -102.6833 303° West 431 496 32,000 -420 Descending Denver Center
06:55PM 38.8731 -102.8292 301° West 429 494 32,000  Level Denver Center
06:56PM 38.9328 -102.9542 302° West 429 494 32,000  Level Denver Center
06:57PM 38.9933 -103.0814 302° West 431 496 32,000  Level Denver Center
06:58PM 39.0639 -103.2294 302° West 433 498 32,000 -840 Level Denver Center
06:59PM 39.1244 -103.3575 301° West 436 502 30,300 -2,160 Descending Denver Center
07:00PM 39.1936 -103.5044 301° West 434 499 27,500 -2,520 Descending Denver Center
07:01PM 39.2603 -103.6472 301° West 421 484 25,100 -2,220 Descending Denver Center
07:02PM 39.3147 -103.7636 301° West 405 466 23,000 -1,740 Descending Denver Center
07:03PM 39.3750 -103.8931 301° West 385 443 21,600 -1,260 Descending Denver Center
07:04PM 39.4269 -103.9958 303° West 351 404 20,400 -1,260 Descending Denver Center
07:05PM 39.4769 -104.0736 310° West 334 384 19,100 -1,680 Descending Denver Center
07:06PM 39.5436 -104.1844 308° West 318 366 17,000 -1,020 Descending Denver Center
07:07PM 39.5950 -104.2697 308° West 302 348 17,100 -420 Climbing Denver Center
07:08PM 39.6453 -104.3553 307° West 298 343 16,200 -960 Descending Denver Center
07:09PM 39.6997 -104.4442 309° West 294 338 15,200 -1,080 Descending Denver Center
07:10PM 39.7464 -104.5342 304° West 300 345 14,000 -1,020 Descending Denver Center
07:12PM 39.7506 -104.6458 273° West 288 331 13,100 -840 Descending Denver Center
07:13PM 39.7544 -104.7406 273° West 262 302 12,300 -900 Descending Denver Center
07:14PM 39.7581 -104.8247 273° West 236 272 11,300 -1,080 Descending Denver Center
07:15PM 39.7719 -104.9072 282° West 230 265 10,100 -1,200 Descending Denver Center